createdAt,value
2023-05-07T00:01:23.260Z,2.50
2023-05-07T00:03:53.343Z,2.30
2023-05-07T00:06:21.446Z,2.10
2023-05-07T00:08:49.541Z,2.00
2023-05-07T00:11:17.937Z,2.30
2023-05-07T00:13:45.979Z,2.10
2023-05-07T00:16:14.377Z,2.30
2023-05-07T00:18:42.904Z,2.20
2023-05-07T00:21:13.082Z,2.30
2023-05-07T00:23:41.436Z,2.37
2023-05-07T00:26:09.917Z,2.60
2023-05-07T00:28:38.129Z,2.30
2023-05-07T00:31:06.516Z,2.40
2023-05-07T00:33:34.662Z,2.50
2023-05-07T00:36:03.312Z,2.40
2023-05-07T00:38:33.121Z,2.80
2023-05-07T00:41:01.680Z,2.30
2023-05-07T00:43:31.264Z,2.63
2023-05-07T00:46:00.284Z,2.43
2023-05-07T00:48:29.224Z,2.50
2023-05-07T00:50:58.726Z,2.40
2023-05-07T00:53:27.766Z,2.13
2023-05-07T00:55:58.141Z,2.53
2023-05-07T00:58:26.476Z,2.63
2023-05-07T01:00:54.938Z,2.53
2023-05-07T01:03:23.745Z,3.13
2023-05-07T01:05:53.963Z,3.07
2023-05-07T01:08:26.724Z,2.70
2023-05-07T01:10:57.161Z,2.60
2023-05-07T01:13:27.301Z,2.47
2023-05-07T01:15:55.535Z,2.53
2023-05-07T01:18:23.931Z,2.40
2023-05-07T01:20:52.395Z,2.83
2023-05-07T01:23:22.849Z,2.63
2023-05-07T01:25:54.389Z,2.60
2023-05-07T01:28:22.722Z,2.90
2023-05-07T01:30:56.655Z,2.53
2023-05-07T01:33:25.833Z,3.03
2023-05-07T01:35:55.925Z,2.77
2023-05-07T01:38:26.433Z,3.10
2023-05-07T01:40:55.834Z,2.80
2023-05-07T01:43:24.372Z,3.00
2023-05-07T01:45:52.682Z,2.87
2023-05-07T01:48:22.988Z,3.20
2023-05-07T01:50:52.330Z,3.33
2023-05-07T01:53:20.672Z,3.00
2023-05-07T01:55:50.403Z,3.20
2023-05-07T01:58:18.506Z,3.10
2023-05-07T02:00:46.869Z,3.10
2023-05-07T02:03:15.334Z,3.20
2023-05-07T02:05:43.483Z,2.90
2023-05-07T02:08:11.644Z,3.10
2023-05-07T02:10:40.345Z,3.20
2023-05-07T02:13:10.108Z,3.20
2023-05-07T02:15:38.654Z,3.57
2023-05-07T02:18:10.194Z,3.20
2023-05-07T02:20:38.600Z,3.30
2023-05-07T02:23:06.881Z,3.33
2023-05-07T02:25:35.069Z,3.30
2023-05-07T02:28:03.229Z,3.27
2023-05-07T02:30:32.957Z,3.63
2023-05-07T02:33:01.393Z,3.50
2023-05-07T02:35:30.155Z,3.37
2023-05-07T02:37:58.202Z,3.53
2023-05-07T02:40:26.322Z,3.27
2023-05-07T02:42:54.410Z,3.20
2023-05-07T02:45:22.595Z,3.60
2023-05-07T02:47:53.906Z,3.40
2023-05-07T02:50:22.105Z,3.30
2023-05-07T02:52:52.982Z,3.50
2023-05-07T02:55:22.025Z,3.77
2023-05-07T02:57:50.285Z,3.50
2023-05-07T03:00:20.562Z,3.80
2023-05-07T03:02:48.791Z,4.10
2023-05-07T03:05:21.162Z,4.10
2023-05-07T03:07:49.180Z,3.80
2023-05-07T03:10:17.393Z,3.83
2023-05-07T03:12:46.029Z,3.93
2023-05-07T03:15:14.949Z,3.93
2023-05-07T03:17:43.440Z,3.47
2023-05-07T03:20:13.375Z,3.97
2023-05-07T03:22:43.680Z,4.10
2023-05-07T03:25:13.658Z,3.87
2023-05-07T03:27:43.576Z,3.97
2023-05-07T03:30:13.097Z,4.43
2023-05-07T03:32:42.919Z,4.10
2023-05-07T03:35:11.529Z,4.23
2023-05-07T03:37:40.209Z,4.00
2023-05-07T03:40:12.664Z,4.67
2023-05-07T03:42:40.948Z,4.73
2023-05-07T03:45:10.980Z,4.73
2023-05-07T03:47:39.235Z,5.10
2023-05-07T03:50:08.250Z,5.13
2023-05-07T03:52:36.820Z,5.90
2023-05-07T03:55:05.300Z,6.07
2023-05-07T03:57:34.856Z,5.50
2023-05-07T04:00:03.881Z,6.30
2023-05-07T04:02:32.604Z,6.07
2023-05-07T04:05:01.050Z,6.27
2023-05-07T04:07:29.277Z,6.00
2023-05-07T04:09:57.370Z,6.07
2023-05-07T04:12:25.455Z,6.07
2023-05-07T04:14:56.288Z,7.27
2023-05-07T04:17:24.327Z,7.17
2023-05-07T04:19:52.751Z,7.70
2023-05-07T04:22:22.370Z,8.23
2023-05-07T04:24:51.208Z,8.13
2023-05-07T04:27:19.678Z,8.50
2023-05-07T04:29:48.547Z,9.00
2023-05-07T04:32:18.792Z,8.53
2023-05-07T04:34:47.488Z,9.77
2023-05-07T04:37:15.588Z,9.57
2023-05-07T04:39:43.810Z,9.73
2023-05-07T04:42:12.064Z,10.27
2023-05-07T04:44:40.290Z,10.30
2023-05-07T04:47:08.822Z,10.40
2023-05-07T04:49:38.521Z,9.77
2023-05-07T04:52:06.963Z,11.33
2023-05-07T04:54:35.158Z,12.90
2023-05-07T04:57:03.380Z,10.97
2023-05-07T04:59:31.407Z,11.50
2023-05-07T05:01:59.812Z,11.03
2023-05-07T05:04:28.387Z,11.33
2023-05-07T05:06:58.563Z,11.63
2023-05-07T05:09:26.778Z,12.47
2023-05-07T05:11:55.107Z,12.00
2023-05-07T05:14:23.914Z,12.53
2023-05-07T05:16:52.120Z,12.37
2023-05-07T05:19:20.373Z,13.13
2023-05-07T05:21:49.742Z,14.30
2023-05-07T05:24:19.549Z,13.27
2023-05-07T05:26:47.725Z,14.03
2023-05-07T05:29:16.093Z,14.20
2023-05-07T05:31:44.184Z,13.73
2023-05-07T05:34:12.750Z,13.70
2023-05-07T05:36:41.058Z,14.50
2023-05-07T05:39:09.891Z,15.00
2023-05-07T05:41:39.870Z,13.37
2023-05-07T05:44:08.356Z,14.03
2023-05-07T05:46:40.143Z,15.67
2023-05-07T05:49:08.341Z,15.50
2023-05-07T05:51:36.777Z,14.87
2023-05-07T05:54:05.816Z,15.57
2023-05-07T05:56:34.152Z,16.93
2023-05-07T05:59:04.034Z,15.67
2023-05-07T06:01:32.285Z,16.80
2023-05-07T06:04:00.779Z,17.10
2023-05-07T06:06:29.498Z,16.50
2023-05-07T06:08:57.645Z,16.80
2023-05-07T06:11:26.625Z,17.27
2023-05-07T06:13:54.924Z,17.10
2023-05-07T06:16:24.802Z,19.30
2023-05-07T06:18:53.096Z,19.73
2023-05-07T06:21:21.314Z,19.33
2023-05-07T06:23:49.343Z,18.70
2023-05-07T06:26:17.790Z,18.87
2023-05-07T06:28:46.201Z,18.80
2023-05-07T06:31:15.880Z,18.23
2023-05-07T06:33:47.609Z,19.73
2023-05-07T06:36:15.723Z,19.60
2023-05-07T06:38:45.571Z,19.53
2023-05-07T06:41:14.051Z,18.63
2023-05-07T06:43:42.104Z,19.13
2023-05-07T06:46:10.313Z,18.97
2023-05-07T06:48:38.423Z,18.37
2023-05-07T06:51:09.791Z,18.77
2023-05-07T06:53:40.498Z,18.30
2023-05-07T06:56:09.202Z,20.20
2023-05-07T06:58:37.509Z,19.00
2023-05-07T07:01:07.246Z,19.10
2023-05-07T07:03:35.446Z,19.70
2023-05-07T07:06:04.549Z,19.17
2023-05-07T07:08:34.576Z,18.30
2023-05-07T07:11:02.749Z,18.57
2023-05-07T07:13:31.006Z,19.23
2023-05-07T07:15:59.519Z,18.07
2023-05-07T07:18:27.757Z,18.07
2023-05-07T07:20:56.102Z,17.63
2023-05-07T07:23:24.180Z,17.30
2023-05-07T07:25:57.039Z,17.20
2023-05-07T07:28:27.540Z,16.80
2023-05-07T07:30:55.749Z,17.43
2023-05-07T07:33:24.228Z,16.53
2023-05-07T07:35:52.435Z,17.07
2023-05-07T07:38:20.665Z,17.33
2023-05-07T07:40:50.316Z,16.63
2023-05-07T07:43:20.083Z,16.83
2023-05-07T07:45:48.552Z,16.33
2023-05-07T07:48:17.013Z,16.07
2023-05-07T07:50:46.313Z,16.07
2023-05-07T07:53:14.632Z,17.30
2023-05-07T07:55:43.018Z,16.13
2023-05-07T07:58:11.259Z,16.13
2023-05-07T08:00:41.093Z,16.83
2023-05-07T08:03:12.471Z,17.23
2023-05-07T08:05:41.134Z,16.03
2023-05-07T08:08:09.673Z,16.57
2023-05-07T08:10:39.473Z,15.03
2023-05-07T08:13:07.981Z,15.80
2023-05-07T08:15:36.083Z,16.00
2023-05-07T08:18:06.858Z,14.27
2023-05-07T08:20:38.391Z,16.30
2023-05-07T08:23:07.258Z,15.80
2023-05-07T08:25:35.733Z,16.83
2023-05-07T08:28:04.450Z,14.87
2023-05-07T08:30:32.526Z,14.17
2023-05-07T08:33:00.948Z,14.13
2023-05-07T08:35:30.820Z,16.37
2023-05-07T08:37:59.369Z,14.73
2023-05-07T08:40:28.320Z,14.90
2023-05-07T08:42:57.745Z,13.17
2023-05-07T08:45:26.698Z,13.00
2023-05-07T08:48:00.697Z,13.53
2023-05-07T08:50:30.832Z,13.13
2023-05-07T08:52:59.786Z,13.37
2023-05-07T08:55:28.228Z,12.30
2023-05-07T08:57:56.537Z,12.03
2023-05-07T09:00:25.230Z,12.43
2023-05-07T09:02:55.164Z,12.10
2023-05-07T09:05:23.571Z,12.50
2023-05-07T09:07:54.615Z,12.13
2023-05-07T09:10:23.474Z,11.23
2023-05-07T09:12:51.617Z,11.77
2023-05-07T09:15:20.468Z,11.60
2023-05-07T09:17:48.820Z,11.13
2023-05-07T09:20:18.752Z,11.90
2023-05-07T09:22:47.066Z,12.07
2023-05-07T09:25:16.670Z,10.97
2023-05-07T09:27:45.412Z,10.70
2023-05-07T09:30:15.193Z,11.17
2023-05-07T09:32:43.445Z,10.73
2023-05-07T09:35:18.255Z,10.10
2023-05-07T09:37:46.949Z,10.70
2023-05-07T09:40:25.571Z,9.70
2023-05-07T09:42:54.100Z,11.20
2023-05-07T09:45:25.992Z,10.13
2023-05-07T09:47:58.173Z,10.60
2023-05-07T09:50:29.877Z,11.60
2023-05-07T09:52:59.442Z,10.97
2023-05-07T09:55:29.625Z,10.37
2023-05-07T09:57:58.162Z,11.10
2023-05-07T10:00:28.207Z,10.37
2023-05-07T10:02:59.974Z,11.17
2023-05-07T10:05:28.942Z,11.00
2023-05-07T10:07:58.807Z,10.37
2023-05-07T10:10:30.362Z,10.63
2023-05-07T10:12:59.704Z,8.47
2023-05-07T10:15:29.127Z,8.13
2023-05-07T10:17:58.548Z,8.63
2023-05-07T10:20:29.442Z,9.30
2023-05-07T10:22:59.735Z,8.70
2023-05-07T10:25:32.400Z,9.27
2023-05-07T10:28:07.406Z,8.95
2023-05-07T10:30:50.950Z,8.52
2023-05-07T10:33:24.156Z,8.95
2023-05-07T10:35:52.699Z,9.07
2023-05-07T10:38:21.665Z,8.57
2023-05-07T10:40:53.098Z,8.30
2023-05-07T10:43:21.391Z,7.85
2023-05-07T10:46:12.276Z,8.02
2023-05-07T10:49:12.687Z,8.27
2023-05-07T10:51:41.566Z,7.65
2023-05-07T10:54:23.887Z,8.05
2023-05-07T10:56:53.598Z,7.78
2023-05-07T10:59:43.314Z,6.57
2023-05-07T11:02:15.405Z,8.38
2023-05-07T11:04:46.078Z,7.85
2023-05-07T11:07:26.900Z,8.05
2023-05-07T11:10:06.721Z,8.20
2023-05-07T11:12:56.179Z,7.68
2023-05-07T11:15:44.481Z,6.72
2023-05-07T11:18:14.132Z,7.63
2023-05-07T11:20:51.365Z,7.50
2023-05-07T11:23:52.714Z,7.40
2023-05-07T11:26:21.526Z,6.80
2023-05-07T11:28:52.772Z,7.10
2023-05-07T11:31:24.853Z,6.80
2023-05-07T11:33:54.204Z,6.68
2023-05-07T11:36:23.474Z,6.32
2023-05-07T11:38:51.897Z,7.78
2023-05-07T11:41:21.856Z,7.25
2023-05-07T11:43:59.331Z,6.47
2023-05-07T11:46:27.883Z,7.38
2023-05-07T11:48:56.442Z,7.45
2023-05-07T11:51:27.129Z,6.80
2023-05-07T11:53:56.275Z,7.15
2023-05-07T11:56:24.655Z,6.65
2023-05-07T11:58:53.313Z,7.32
2023-05-07T12:01:22.874Z,6.38
2023-05-07T12:03:51.173Z,6.50
2023-05-07T12:06:21.035Z,6.32
2023-05-07T12:08:49.468Z,6.13
2023-05-07T12:11:23.967Z,7.00
2023-05-07T12:13:52.120Z,7.30
2023-05-07T12:16:21.776Z,7.15
2023-05-07T12:18:53.771Z,7.10
2023-05-07T12:21:21.990Z,6.72
2023-05-07T12:23:50.645Z,6.32
2023-05-07T12:26:18.948Z,5.45
2023-05-07T12:28:48.327Z,5.82
2023-05-07T12:31:17.399Z,6.75
2023-05-07T12:33:45.742Z,5.60
2023-05-07T12:36:15.962Z,6.22
2023-05-07T12:38:44.245Z,5.20
2023-05-07T12:41:13.702Z,5.20
2023-05-07T12:43:42.037Z,4.93
2023-05-07T12:46:10.209Z,5.07
2023-05-07T12:48:40.052Z,5.65
2023-05-07T12:51:08.854Z,4.90
2023-05-07T12:53:43.368Z,4.93
2023-05-07T12:56:11.873Z,4.80
2023-05-07T12:58:40.017Z,4.60
2023-05-07T13:01:11.268Z,4.65
2023-05-07T13:03:40.929Z,3.65
2023-05-07T13:06:13.419Z,4.20
2023-05-07T13:08:45.233Z,4.97
2023-05-07T13:11:14.575Z,4.38
2023-05-07T13:13:43.742Z,4.28
2023-05-07T13:16:13.655Z,4.50
2023-05-07T13:18:45.063Z,4.30
2023-05-07T13:21:14.636Z,3.15
2023-05-07T13:23:44.728Z,4.13
2023-05-07T13:26:25.786Z,4.53
2023-05-07T13:28:55.727Z,4.28
2023-05-07T13:31:24.035Z,3.90
2023-05-07T13:33:52.179Z,4.20
2023-05-07T13:36:20.332Z,4.10
2023-05-07T13:38:50.453Z,4.78
2023-05-07T13:41:18.843Z,4.38
2023-05-07T13:43:46.909Z,4.13
2023-05-07T13:46:15.329Z,4.03
2023-05-07T13:48:43.754Z,4.20
2023-05-07T13:51:12.113Z,4.60
2023-05-07T13:53:40.345Z,4.20
2023-05-07T13:56:10.238Z,3.97
2023-05-07T13:58:52.104Z,3.83
2023-05-07T14:01:25.128Z,4.10
2023-05-07T14:03:53.371Z,4.22
2023-05-07T14:06:21.932Z,4.50
2023-05-07T14:08:52.007Z,4.10
2023-05-07T14:11:21.942Z,3.88
2023-05-07T14:13:50.293Z,4.40
2023-05-07T14:16:18.490Z,3.75
2023-05-07T14:18:46.990Z,4.00
2023-05-07T14:21:15.702Z,4.60
2023-05-07T14:23:43.793Z,3.92
2023-05-07T14:26:12.193Z,4.22
2023-05-07T14:28:47.266Z,4.20
2023-05-07T14:31:16.097Z,4.80
2023-05-07T14:33:44.219Z,4.53
2023-05-07T14:36:12.316Z,4.55
2023-05-07T14:38:40.963Z,4.57
2023-05-07T14:41:09.349Z,4.15
2023-05-07T14:43:37.617Z,4.47
2023-05-07T14:46:07.885Z,4.43
2023-05-07T14:48:37.655Z,4.20
2023-05-07T14:51:06.428Z,4.78
2023-05-07T14:53:35.091Z,4.15
2023-05-07T14:56:03.617Z,4.60
2023-05-07T14:58:32.045Z,4.60
2023-05-07T15:01:01.225Z,4.38
2023-05-07T15:03:31.371Z,4.90
2023-05-07T15:05:59.629Z,4.38
2023-05-07T15:08:27.824Z,4.35
2023-05-07T15:10:56.430Z,5.00
2023-05-07T15:13:24.537Z,4.30
2023-05-07T15:15:53.122Z,4.82
2023-05-07T15:18:22.869Z,4.72
2023-05-07T15:20:54.182Z,4.85
2023-05-07T15:23:22.514Z,5.30
2023-05-07T15:25:52.482Z,5.15
2023-05-07T15:28:21.283Z,5.40
2023-05-07T15:30:49.858Z,5.53
2023-05-07T15:33:18.311Z,5.47
2023-05-07T15:35:46.796Z,5.80
2023-05-07T15:38:16.919Z,5.07
2023-05-07T15:40:45.877Z,5.00
2023-05-07T15:43:14.267Z,4.88
2023-05-07T15:45:43.480Z,5.10
2023-05-07T15:48:12.960Z,5.45
2023-05-07T15:50:41.466Z,5.32
2023-05-07T15:53:10.058Z,5.32
2023-05-07T15:55:40.988Z,5.90
2023-05-07T15:58:09.389Z,6.43
2023-05-07T16:00:41.389Z,5.82
2023-05-07T16:03:10.378Z,6.20
2023-05-07T16:05:38.611Z,5.97
2023-05-07T16:08:07.854Z,6.57
2023-05-07T16:10:37.650Z,6.50
2023-05-07T16:13:07.490Z,6.57
2023-05-07T16:15:36.086Z,5.55
2023-05-07T16:18:04.661Z,6.90
2023-05-07T16:20:33.048Z,6.80
2023-05-07T16:23:01.449Z,6.30
2023-05-07T16:25:29.730Z,6.40
2023-05-07T16:27:57.850Z,6.35
2023-05-07T16:30:27.904Z,6.55
2023-05-07T16:32:56.373Z,6.70
2023-05-07T16:35:24.754Z,6.18
2023-05-07T16:37:53.266Z,5.88
2023-05-07T16:40:21.408Z,5.85
2023-05-07T16:42:49.848Z,6.22
2023-05-07T16:45:21.142Z,6.07
2023-05-07T16:47:50.928Z,6.10
2023-05-07T16:50:19.156Z,6.07
2023-05-07T16:52:48.065Z,5.65
2023-05-07T16:55:16.172Z,5.22
2023-05-07T16:57:44.250Z,5.50
2023-05-07T17:00:13.376Z,5.47
2023-05-07T17:02:43.682Z,6.00
2023-05-07T17:05:13.923Z,5.80
2023-05-07T17:07:42.320Z,5.85
2023-05-07T17:10:11.425Z,5.50
2023-05-07T17:12:39.808Z,5.00
2023-05-07T17:15:08.868Z,5.05
2023-05-07T17:17:37.002Z,5.35
2023-05-07T17:20:05.994Z,5.70
2023-05-07T17:22:35.713Z,5.60
2023-05-07T17:25:04.441Z,5.63
2023-05-07T17:27:34.168Z,5.63
2023-05-07T17:30:02.689Z,5.93
2023-05-07T17:32:32.895Z,6.10
2023-05-07T17:35:01.013Z,5.40
2023-05-07T17:37:29.663Z,5.53
2023-05-07T17:39:59.479Z,6.40
2023-05-07T17:42:27.815Z,6.37
2023-05-07T17:44:56.285Z,6.17
2023-05-07T17:47:24.994Z,5.87
2023-05-07T17:49:53.464Z,5.60
2023-05-07T17:52:21.913Z,6.90
2023-05-07T17:54:51.246Z,6.07
2023-05-07T17:57:21.111Z,6.60
2023-05-07T17:59:49.531Z,6.67
2023-05-07T18:02:17.879Z,6.17
2023-05-07T18:04:46.370Z,6.50
2023-05-07T18:07:14.995Z,6.10
2023-05-07T18:09:43.511Z,6.03
2023-05-07T18:12:12.183Z,6.73
2023-05-07T18:14:42.203Z,6.23
2023-05-07T18:17:11.661Z,7.37
2023-05-07T18:19:39.795Z,7.00
2023-05-07T18:22:07.920Z,6.90
2023-05-07T18:24:36.296Z,6.77
2023-05-07T18:27:06.270Z,6.93
2023-05-07T18:29:34.318Z,6.30
2023-05-07T18:32:03.955Z,7.30
2023-05-07T18:34:32.511Z,6.60
2023-05-07T18:37:00.949Z,7.93
2023-05-07T18:39:29.527Z,6.90
2023-05-07T18:41:58.410Z,7.20
2023-05-07T18:44:26.488Z,6.70
2023-05-07T18:46:54.718Z,7.03
2023-05-07T18:49:24.651Z,7.60
2023-05-07T18:51:53.461Z,6.47
2023-05-07T18:54:21.631Z,6.70
2023-05-07T18:56:49.708Z,6.77
2023-05-07T18:59:18.345Z,6.80
2023-05-07T19:01:48.256Z,6.73
2023-05-07T19:04:18.320Z,7.70
2023-05-07T19:06:48.071Z,6.90
2023-05-07T19:09:17.069Z,7.47
2023-05-07T19:11:45.686Z,6.30
2023-05-07T19:14:14.126Z,7.53
2023-05-07T19:16:44.025Z,6.50
2023-05-07T19:19:12.213Z,6.17
2023-05-07T19:21:40.700Z,6.57
2023-05-07T19:24:12.069Z,6.70
2023-05-07T19:26:41.286Z,6.50
2023-05-07T19:29:17.614Z,6.70
2023-05-07T19:31:46.721Z,6.83
2023-05-07T19:34:15.542Z,6.60
2023-05-07T19:36:44.019Z,6.27
2023-05-07T19:39:14.100Z,6.53
2023-05-07T19:41:43.152Z,6.60
2023-05-07T19:44:11.641Z,6.23
2023-05-07T19:46:44.921Z,6.90
2023-05-07T19:49:13.332Z,7.70
2023-05-07T19:51:41.726Z,8.13
2023-05-07T19:54:09.936Z,7.80
2023-05-07T19:56:40.185Z,7.43
2023-05-07T19:59:11.062Z,7.30
2023-05-07T20:01:40.530Z,7.17
2023-05-07T20:04:08.714Z,6.97
2023-05-07T20:06:36.897Z,7.13
2023-05-07T20:09:06.453Z,6.60
2023-05-07T20:11:34.870Z,6.50
2023-05-07T20:14:06.035Z,6.97
2023-05-07T20:16:34.752Z,7.37
2023-05-07T20:19:03.544Z,6.17
2023-05-07T20:21:32.143Z,6.40
2023-05-07T20:24:00.614Z,6.93
2023-05-07T20:26:29.073Z,6.03
2023-05-07T20:28:57.324Z,6.20
2023-05-07T20:31:26.889Z,6.27
2023-05-07T20:33:55.246Z,6.17
2023-05-07T20:36:26.160Z,6.10
2023-05-07T20:38:54.322Z,6.03
2023-05-07T20:41:24.931Z,6.30
2023-05-07T20:43:53.122Z,6.13
2023-05-07T20:46:23.137Z,6.40
2023-05-07T20:48:53.048Z,6.47
2023-05-07T20:51:21.363Z,6.97
2023-05-07T20:53:49.788Z,6.50
2023-05-07T20:56:17.860Z,6.93
2023-05-07T20:58:45.852Z,7.27
2023-05-07T21:01:14.047Z,6.80
2023-05-07T21:03:42.692Z,7.23
2023-05-07T21:06:12.686Z,7.03
2023-05-07T21:08:41.156Z,6.50
2023-05-07T21:11:10.260Z,7.13
2023-05-07T21:13:38.597Z,7.00
2023-05-07T21:16:06.937Z,6.90
2023-05-07T21:18:35.542Z,7.60
2023-05-07T21:21:09.189Z,6.63
2023-05-07T21:23:39.043Z,7.43
2023-05-07T21:26:07.181Z,7.40
2023-05-07T21:28:35.362Z,7.20
2023-05-07T21:31:03.694Z,7.43
2023-05-07T21:33:32.214Z,7.07
2023-05-07T21:36:00.609Z,7.73
2023-05-07T21:38:28.735Z,6.93
2023-05-07T21:40:59.001Z,7.87
2023-05-07T21:43:28.802Z,6.60
2023-05-07T21:45:57.136Z,7.20
2023-05-07T21:48:27.676Z,7.10
2023-05-07T21:51:02.152Z,6.67
2023-05-07T21:53:32.111Z,7.17
2023-05-07T21:56:03.000Z,6.67
2023-05-07T21:58:31.447Z,7.00
2023-05-07T22:00:59.937Z,7.00
2023-05-07T22:03:28.314Z,6.57
2023-05-07T22:05:57.186Z,6.63
2023-05-07T22:08:25.781Z,6.90
2023-05-07T22:10:54.767Z,6.67
2023-05-07T22:13:25.036Z,6.80
2023-05-07T22:15:57.582Z,6.90
2023-05-07T22:18:26.957Z,6.83
2023-05-07T22:20:55.365Z,7.13
2023-05-07T22:23:24.058Z,6.97
2023-05-07T22:25:52.466Z,6.97
2023-05-07T22:28:20.867Z,7.00
2023-05-07T22:30:51.537Z,7.07
2023-05-07T22:33:19.898Z,6.87
2023-05-07T22:35:48.124Z,6.90
2023-05-07T22:38:16.577Z,6.70
2023-05-07T22:40:44.626Z,6.50
2023-05-07T22:43:12.859Z,6.73
2023-05-07T22:45:41.396Z,6.63
2023-05-07T22:48:11.482Z,7.43
2023-05-07T22:50:40.028Z,6.60
2023-05-07T22:53:08.509Z,6.80
2023-05-07T22:55:36.918Z,7.20
2023-05-07T22:58:05.353Z,6.47
2023-05-07T23:00:34.104Z,6.87
2023-05-07T23:03:02.660Z,6.73
2023-05-07T23:05:32.559Z,7.10
2023-05-07T23:08:00.678Z,7.33
2023-05-07T23:10:28.906Z,7.23
2023-05-07T23:12:57.320Z,7.03
2023-05-07T23:15:25.807Z,7.30
2023-05-07T23:17:54.482Z,7.20
2023-05-07T23:20:23.205Z,7.70
2023-05-07T23:22:54.236Z,7.47
2023-05-07T23:25:22.999Z,7.70
2023-05-07T23:27:51.226Z,7.70
2023-05-07T23:30:19.590Z,7.33
2023-05-07T23:32:47.949Z,7.67
2023-05-07T23:35:16.373Z,7.17
2023-05-07T23:37:44.670Z,7.07
2023-05-07T23:40:14.412Z,7.37
2023-05-07T23:42:43.227Z,7.13
2023-05-07T23:45:12.165Z,6.90
2023-05-07T23:47:40.360Z,6.97
2023-05-07T23:50:08.988Z,7.80
2023-05-07T23:52:37.115Z,7.77
2023-05-07T23:55:05.742Z,8.13
2023-05-07T23:57:35.651Z,7.67
